createdAt,value
2018-06-17T00:00:01.826Z,9.73
2018-06-17T00:02:30.487Z,13.03
2018-06-17T00:04:59.100Z,10.40
2018-06-17T00:07:27.778Z,8.53
2018-06-17T00:09:56.373Z,8.17
2018-06-17T00:12:25.031Z,7.33
2018-06-17T00:14:53.653Z,7.77
2018-06-17T00:17:22.399Z,7.90
2018-06-17T00:19:51.127Z,8.10
2018-06-17T00:22:20.034Z,7.67
2018-06-17T00:24:48.675Z,7.87
2018-06-17T00:27:17.322Z,7.83
2018-06-17T00:29:46.218Z,8.17
2018-06-17T00:32:15.245Z,8.93
2018-06-17T00:34:43.818Z,8.27
2018-06-17T00:37:13.084Z,11.33
2018-06-17T00:39:41.720Z,8.87
2018-06-17T00:42:11.058Z,9.70
2018-06-17T00:44:39.794Z,8.47
2018-06-17T00:47:08.437Z,14.53
2018-06-17T00:49:37.033Z,9.20
2018-06-17T00:52:05.836Z,9.10
2018-06-17T00:54:34.434Z,9.23
2018-06-17T00:57:14.103Z,8.83
2018-06-17T00:59:42.722Z,9.23
2018-06-17T01:02:11.380Z,9.53
2018-06-17T01:04:40.106Z,16.83
2018-06-17T01:07:08.905Z,11.77
2018-06-17T01:09:37.615Z,10.97
2018-06-17T01:12:06.278Z,8.13
2018-06-17T01:14:34.890Z,8.87
2018-06-17T01:17:03.522Z,8.93
2018-06-17T01:19:32.283Z,9.10
2018-06-17T01:22:01.530Z,9.30
2018-06-17T01:24:30.141Z,8.87
2018-06-17T01:26:58.713Z,11.80
2018-06-17T01:29:27.349Z,8.70
2018-06-17T01:31:55.994Z,10.80
2018-06-17T01:34:24.634Z,13.53
2018-06-17T01:36:53.255Z,10.30
2018-06-17T01:39:21.826Z,9.50
2018-06-17T01:41:50.417Z,9.90
2018-06-17T01:44:19.108Z,8.33
2018-06-17T01:46:47.724Z,8.97
2018-06-17T01:49:16.377Z,13.10
2018-06-17T01:51:45.007Z,8.90
2018-06-17T01:54:13.653Z,8.20
2018-06-17T01:56:42.262Z,9.70
2018-06-17T01:59:10.893Z,11.10
2018-06-17T02:01:39.488Z,9.97
2018-06-17T02:04:13.268Z,8.40
2018-06-17T02:06:47.072Z,8.53
2018-06-17T02:09:20.954Z,9.30
2018-06-17T02:11:54.819Z,12.07
2018-06-17T02:14:28.685Z,10.17
2018-06-17T02:16:57.297Z,9.33
2018-06-17T02:19:26.572Z,13.63
2018-06-17T02:21:55.200Z,12.03
2018-06-17T02:24:24.250Z,12.50
2018-06-17T02:26:53.550Z,10.20
2018-06-17T02:29:22.216Z,9.27
2018-06-17T02:31:50.878Z,10.50
2018-06-17T02:34:19.602Z,10.00
2018-06-17T02:36:48.267Z,9.17
2018-06-17T02:39:16.839Z,10.17
2018-06-17T02:41:45.510Z,8.30
2018-06-17T02:44:14.108Z,8.90
2018-06-17T02:46:47.920Z,8.43
2018-06-17T02:49:21.607Z,9.07
2018-06-17T02:51:55.360Z,9.23
2018-06-17T02:54:29.109Z,9.30
2018-06-17T02:56:57.722Z,9.13
2018-06-17T02:59:26.299Z,9.70
2018-06-17T03:01:54.882Z,9.00
2018-06-17T03:04:23.525Z,9.80
2018-06-17T03:06:52.130Z,9.73
2018-06-17T03:09:20.724Z,8.80
2018-06-17T03:11:49.412Z,8.37
2018-06-17T03:14:18.756Z,8.50
2018-06-17T03:16:47.351Z,8.50
2018-06-17T03:19:16.995Z,10.30
2018-06-17T03:21:45.598Z,8.27
2018-06-17T03:24:14.234Z,8.97
2018-06-17T03:26:47.889Z,8.40
2018-06-17T03:29:21.542Z,9.57
2018-06-17T03:31:55.211Z,8.10
2018-06-17T03:34:23.845Z,8.73
2018-06-17T03:36:52.465Z,8.13
2018-06-17T03:39:21.092Z,9.77
2018-06-17T03:41:49.769Z,12.33
2018-06-17T03:44:18.346Z,8.80
2018-06-17T03:46:46.932Z,9.27
2018-06-17T03:49:15.501Z,10.53
2018-06-17T03:51:44.132Z,8.60
2018-06-17T03:54:12.747Z,9.47
2018-06-17T03:56:41.385Z,9.20
2018-06-17T03:59:10.075Z,9.37
2018-06-17T04:01:38.705Z,16.27
2018-06-17T04:04:07.370Z,12.57
2018-06-17T04:06:36.255Z,9.43
2018-06-17T04:09:06.374Z,8.73
2018-06-17T04:11:35.382Z,11.93
2018-06-17T04:14:03.970Z,14.93
2018-06-17T04:16:32.585Z,9.20
2018-06-17T04:19:01.187Z,8.60
2018-06-17T04:21:29.854Z,10.70
2018-06-17T04:23:58.428Z,8.20
2018-06-17T04:26:27.111Z,9.33
2018-06-17T04:28:55.689Z,9.60
2018-06-17T04:31:24.262Z,9.40
2018-06-17T04:33:53.685Z,9.07
2018-06-17T04:36:23.130Z,11.10
2018-06-17T04:38:51.709Z,8.80
2018-06-17T04:41:20.306Z,8.50
2018-06-17T04:43:48.987Z,9.40
2018-06-17T04:46:17.571Z,9.80
2018-06-17T04:48:46.145Z,13.40
2018-06-17T04:51:14.750Z,8.73
2018-06-17T04:53:43.313Z,8.33
2018-06-17T04:56:11.908Z,11.00
2018-06-17T04:58:40.519Z,12.13
2018-06-17T05:01:09.142Z,11.17
2018-06-17T05:03:37.715Z,9.63
2018-06-17T05:06:06.380Z,9.33
2018-06-17T05:08:34.957Z,9.67
2018-06-17T05:11:03.534Z,8.73
2018-06-17T05:13:32.129Z,9.37
2018-06-17T05:16:00.697Z,8.83
2018-06-17T05:18:29.263Z,9.20
2018-06-17T05:20:57.823Z,10.50
2018-06-17T05:23:26.420Z,8.93
2018-06-17T05:25:54.984Z,8.67
2018-06-17T05:28:23.539Z,9.73
2018-06-17T05:30:52.156Z,8.57
2018-06-17T05:33:20.793Z,10.90
2018-06-17T05:35:49.409Z,8.67
2018-06-17T05:38:18.005Z,8.43
2018-06-17T05:40:46.599Z,7.80
2018-06-17T05:43:15.238Z,8.10
2018-06-17T05:45:43.897Z,7.77
2018-06-17T05:48:12.496Z,8.23
2018-06-17T05:50:41.063Z,11.53
2018-06-17T05:53:09.641Z,9.30
2018-06-17T05:55:38.314Z,9.20
2018-06-17T05:58:06.913Z,8.40
2018-06-17T06:00:35.475Z,8.57
2018-06-17T06:03:04.103Z,8.83
2018-06-17T06:05:32.663Z,10.60
2018-06-17T06:08:01.254Z,11.17
2018-06-17T06:10:29.927Z,7.77
2018-06-17T06:12:58.514Z,9.37
2018-06-17T06:15:27.323Z,8.80
2018-06-17T06:17:55.909Z,11.80
2018-06-17T06:20:24.553Z,8.40
2018-06-17T06:22:53.140Z,8.67
2018-06-17T06:25:21.773Z,8.23
2018-06-17T06:27:50.344Z,8.30
2018-06-17T06:30:18.945Z,8.33
2018-06-17T06:32:47.561Z,8.70
2018-06-17T06:35:16.176Z,8.27
2018-06-17T06:37:44.761Z,9.77
2018-06-17T06:40:13.514Z,9.00
2018-06-17T06:42:42.147Z,8.77
2018-06-17T06:45:10.718Z,8.60
2018-06-17T06:47:39.292Z,8.50
2018-06-17T06:50:07.907Z,7.40
2018-06-17T06:52:36.489Z,9.77
2018-06-17T06:55:05.078Z,8.43
2018-06-17T06:57:33.727Z,8.33
2018-06-17T07:00:02.330Z,7.80
2018-06-17T07:02:41.837Z,7.93
2018-06-17T07:05:21.449Z,9.67
2018-06-17T07:08:00.913Z,8.00
2018-06-17T07:10:30.355Z,8.20
2018-06-17T07:12:58.957Z,13.20
2018-06-17T07:17:43.233Z,8.93
2018-06-17T07:20:11.810Z,8.20
2018-06-17T07:22:40.440Z,9.70
2018-06-17T07:25:11.319Z,8.60
2018-06-17T07:29:59.932Z,7.03
2018-06-17T07:32:28.610Z,7.40
2018-06-17T07:34:57.212Z,8.70
2018-06-17T07:37:25.802Z,10.13
2018-06-17T07:40:57.722Z,9.20
2018-06-17T07:43:26.335Z,12.83
2018-06-17T07:45:54.983Z,8.13
2018-06-17T07:49:44.026Z,9.60
2018-06-17T07:52:24.445Z,8.00
2018-06-17T07:54:53.073Z,8.20
2018-06-17T07:57:22.935Z,9.53
2018-06-17T07:59:51.514Z,6.97
2018-06-17T08:02:20.874Z,7.30
2018-06-17T08:04:49.578Z,8.67
2018-06-17T08:07:19.449Z,11.37
2018-06-17T08:09:48.848Z,8.23
2018-06-17T08:12:17.515Z,7.23
2018-06-17T08:14:46.252Z,10.87
2018-06-17T08:17:14.890Z,7.97
2018-06-17T08:19:43.941Z,7.37
2018-06-17T08:22:12.554Z,9.00
2018-06-17T08:24:41.204Z,6.10
2018-06-17T08:27:10.791Z,8.97
2018-06-17T08:29:40.191Z,7.93
2018-06-17T08:32:08.833Z,6.70
2018-06-17T08:34:37.518Z,6.63
2018-06-17T08:37:11.175Z,6.87
2018-06-17T08:39:40.324Z,8.47
2018-06-17T08:42:08.968Z,7.10
2018-06-17T08:44:37.684Z,7.10
2018-06-17T08:47:06.427Z,5.10
2018-06-17T08:49:41.408Z,5.53
2018-06-17T08:52:10.188Z,7.40
2018-06-17T08:54:38.793Z,10.40
2018-06-17T08:57:08.337Z,5.27
2018-06-17T08:59:37.112Z,4.87
2018-06-17T09:02:06.299Z,9.87
2018-06-17T09:04:35.007Z,5.80
2018-06-17T09:07:04.298Z,5.80
2018-06-17T09:09:32.961Z,5.63
2018-06-17T09:12:01.886Z,6.00
2018-06-17T09:14:30.490Z,5.37
2018-06-17T09:16:59.667Z,6.07
2018-06-17T09:19:28.313Z,5.80
2018-06-17T09:21:57.779Z,5.60
2018-06-17T09:24:26.430Z,5.50
2018-06-17T09:26:55.090Z,6.33
2018-06-17T09:29:23.722Z,5.30
2018-06-17T09:31:52.488Z,6.27
2018-06-17T09:34:21.155Z,5.70
2018-06-17T09:36:49.894Z,6.13
2018-06-17T09:39:18.557Z,8.53
2018-06-17T09:41:47.166Z,8.73
2018-06-17T09:44:15.800Z,5.53
2018-06-17T09:46:46.998Z,5.63
2018-06-17T09:49:15.761Z,5.97
2018-06-17T09:51:49.852Z,9.60
2018-06-17T09:54:18.733Z,4.23
2018-06-17T09:56:47.389Z,5.37
2018-06-17T09:59:16.009Z,5.17
2018-06-17T10:01:44.684Z,4.47
2018-06-17T10:04:13.354Z,3.80
2018-06-17T10:06:42.006Z,4.20
2018-06-17T10:09:11.361Z,4.20
2018-06-17T10:11:40.147Z,5.23
2018-06-17T10:14:08.930Z,4.63
2018-06-17T10:16:37.695Z,3.60
2018-06-17T10:19:06.574Z,4.50
2018-06-17T10:21:35.259Z,4.23
2018-06-17T10:24:03.991Z,5.63
2018-06-17T10:26:32.680Z,4.20
2018-06-17T10:29:04.292Z,3.97
2018-06-17T10:44:24.103Z,4.67
2018-06-17T10:46:54.078Z,4.60
2018-06-17T10:49:22.738Z,4.17
2018-06-17T10:51:52.554Z,4.20
2018-06-17T10:54:21.209Z,4.47
2018-06-17T10:56:49.838Z,4.70
2018-06-17T10:59:18.523Z,4.77
2018-06-17T11:01:47.196Z,8.67
2018-06-17T11:04:16.370Z,5.57
2018-06-17T11:06:44.994Z,5.10
2018-06-17T11:09:13.770Z,4.60
2018-06-17T11:11:42.579Z,4.93
2018-06-17T11:14:11.305Z,4.33
2018-06-17T11:16:39.954Z,7.13
2018-06-17T11:19:10.402Z,5.63
2018-06-17T11:21:39.049Z,5.03
2018-06-17T11:24:08.094Z,4.57
2018-06-17T11:26:36.823Z,5.30
2018-06-17T11:29:05.440Z,4.43
2018-06-17T11:31:34.110Z,5.23
2018-06-17T11:34:02.781Z,4.20
2018-06-17T11:36:31.468Z,4.13
2018-06-17T11:39:00.196Z,4.73
2018-06-17T11:41:28.995Z,8.90
2018-06-17T11:43:57.870Z,16.63
2018-06-17T11:46:26.595Z,4.70
2018-06-17T11:48:55.214Z,5.87
2018-06-17T11:51:23.901Z,5.33
2018-06-17T11:53:52.498Z,4.80
2018-06-17T11:56:21.185Z,5.17
2018-06-17T11:58:50.025Z,4.80
2018-06-17T12:01:18.666Z,6.20
2018-06-17T12:03:47.828Z,5.47
2018-06-17T12:06:18.175Z,7.00
2018-06-17T12:08:49.035Z,5.70
2018-06-17T12:11:17.690Z,4.47
2018-06-17T12:13:46.705Z,4.93
2018-06-17T12:16:15.341Z,4.70
2018-06-17T12:18:44.010Z,5.10
2018-06-17T12:21:12.637Z,5.03
2018-06-17T12:23:41.715Z,6.87
2018-06-17T12:26:11.389Z,6.20
2018-06-17T12:28:41.967Z,4.73
2018-06-17T12:31:10.873Z,3.83
2018-06-17T12:33:39.553Z,4.40
2018-06-17T12:36:09.801Z,4.20
2018-06-17T12:38:38.569Z,6.53
2018-06-17T12:41:07.794Z,4.80
2018-06-17T12:43:37.397Z,5.07
2018-06-17T12:46:06.482Z,5.50
2018-06-17T12:48:35.497Z,6.00
2018-06-17T12:51:04.375Z,4.30
2018-06-17T12:53:33.112Z,4.63
2018-06-17T12:56:01.734Z,4.00
2018-06-17T12:58:30.341Z,6.10
2018-06-17T13:00:58.965Z,6.53
2018-06-17T13:03:27.609Z,6.60
2018-06-17T13:05:56.282Z,5.40
2018-06-17T13:08:24.911Z,5.20
2018-06-17T13:10:53.773Z,6.03
2018-06-17T13:13:22.435Z,4.97
2018-06-17T13:15:51.085Z,5.03
2018-06-17T13:18:19.702Z,5.63
2018-06-17T13:20:48.357Z,5.00
2018-06-17T13:23:16.973Z,7.43
2018-06-17T13:25:45.742Z,5.33
2018-06-17T13:28:14.412Z,4.67
2018-06-17T13:30:43.159Z,5.80
2018-06-17T13:33:11.861Z,5.23
2018-06-17T13:35:40.828Z,4.93
2018-06-17T13:38:09.484Z,4.90
2018-06-17T13:40:38.113Z,5.40
2018-06-17T13:43:06.819Z,5.47
2018-06-17T13:45:35.471Z,5.10
2018-06-17T13:48:04.133Z,5.30
2018-06-17T13:50:32.770Z,6.27
2018-06-17T13:53:01.672Z,4.80
2018-06-17T13:55:30.294Z,5.20
2018-06-17T13:57:58.970Z,5.30
2018-06-17T14:00:27.587Z,6.17
2018-06-17T14:02:56.202Z,5.40
2018-06-17T14:05:24.832Z,5.10
2018-06-17T14:07:53.468Z,9.57
2018-06-17T14:10:22.150Z,4.97
2018-06-17T14:12:50.917Z,6.07
2018-06-17T14:15:20.940Z,6.03
2018-06-17T14:17:49.620Z,4.67
2018-06-17T14:20:21.823Z,5.20
2018-06-17T14:22:51.794Z,5.23
2018-06-17T14:25:20.409Z,6.10
2018-06-17T14:27:49.596Z,6.07
2018-06-17T14:30:18.232Z,5.03
2018-06-17T14:32:46.873Z,6.63
2018-06-17T14:35:15.566Z,5.37
2018-06-17T14:37:44.225Z,6.00
2018-06-17T14:40:13.548Z,6.97
2018-06-17T14:44:52.307Z,6.43
2018-06-17T14:47:25.921Z,6.53
2018-06-17T14:49:59.574Z,6.60
2018-06-17T14:53:34.535Z,5.90
2018-06-17T14:56:03.158Z,5.40
2018-06-17T14:58:31.779Z,6.20
2018-06-17T15:01:00.437Z,5.90
2018-06-17T15:03:29.157Z,7.30
2018-06-17T15:05:57.978Z,7.40
2018-06-17T15:08:26.658Z,5.80
2018-06-17T15:10:55.392Z,5.70
2018-06-17T15:13:24.000Z,5.37
2018-06-17T15:15:52.694Z,9.13
2018-06-17T15:18:21.473Z,5.90
2018-06-17T15:20:50.631Z,5.73
2018-06-17T15:23:19.277Z,5.90
2018-06-17T15:25:47.958Z,6.37
2018-06-17T15:28:16.599Z,8.53
2018-06-17T15:30:45.239Z,8.20
2018-06-17T15:33:19.074Z,6.50
2018-06-17T15:35:52.735Z,6.17
2018-06-17T15:38:26.375Z,6.20
2018-06-17T15:41:00.249Z,5.40
2018-06-17T15:43:28.963Z,6.60
2018-06-17T15:45:58.077Z,6.57
2018-06-17T15:48:26.725Z,7.07
2018-06-17T15:50:55.560Z,7.50
2018-06-17T15:53:24.142Z,6.70
2018-06-17T15:55:53.517Z,6.60
2018-06-17T15:58:22.880Z,7.00
2018-06-17T16:00:51.610Z,8.10
2018-06-17T16:03:20.254Z,7.10
2018-06-17T16:05:48.938Z,6.67
2018-06-17T16:08:17.564Z,7.17
2018-06-17T16:10:46.257Z,8.63
2018-06-17T16:13:20.384Z,7.37
2018-06-17T16:15:54.041Z,7.47
2018-06-17T16:18:27.778Z,7.33
2018-06-17T16:20:59.403Z,10.73
2018-06-17T16:23:29.858Z,6.27
2018-06-17T16:25:58.702Z,7.37
2018-06-17T16:28:27.341Z,7.30
2018-06-17T16:30:56.209Z,6.83
2018-06-17T16:33:24.995Z,7.17
2018-06-17T16:35:53.796Z,8.07
2018-06-17T16:38:22.670Z,7.57
2018-06-17T16:40:51.778Z,7.50
2018-06-17T16:43:20.413Z,7.80
2018-06-17T16:45:49.125Z,8.13
2018-06-17T16:48:17.756Z,7.00
2018-06-17T16:50:51.857Z,9.43
2018-06-17T16:53:25.493Z,8.00
2018-06-17T16:55:59.399Z,9.10
2018-06-17T16:58:33.026Z,8.37
2018-06-17T17:01:01.740Z,10.80
2018-06-17T17:03:30.382Z,8.27
2018-06-17T17:05:59.070Z,12.17
2018-06-17T17:08:27.723Z,8.63
2018-06-17T17:10:56.404Z,7.80
2018-06-17T17:13:25.025Z,8.00
2018-06-17T17:15:53.605Z,8.27
2018-06-17T17:18:22.226Z,9.87
2018-06-17T17:20:51.064Z,7.20
2018-06-17T17:23:19.767Z,7.27
2018-06-17T17:25:48.410Z,7.53
2018-06-17T17:28:17.140Z,6.33
2018-06-17T17:30:48.923Z,7.73
2018-06-17T17:33:22.789Z,7.57
2018-06-17T17:35:56.883Z,7.93
2018-06-17T17:38:34.165Z,7.87
2018-06-17T17:41:04.841Z,7.77
2018-06-17T17:43:33.458Z,6.43
2018-06-17T17:46:07.192Z,7.43
2018-06-17T17:48:35.868Z,6.70
2018-06-17T17:51:04.627Z,7.77
2018-06-17T17:53:33.293Z,7.40
2018-06-17T17:56:01.969Z,8.47
2018-06-17T17:58:30.590Z,6.57
2018-06-17T18:00:59.271Z,9.97
2018-06-17T18:03:27.914Z,7.03
2018-06-17T18:05:57.229Z,6.70
2018-06-17T18:08:25.942Z,6.67
2018-06-17T18:10:54.591Z,6.50
2018-06-17T18:13:24.175Z,8.60
2018-06-17T18:15:52.796Z,6.80
2018-06-17T18:18:21.433Z,6.50
2018-06-17T18:20:50.093Z,7.37
2018-06-17T18:23:18.757Z,7.23
2018-06-17T18:25:52.405Z,7.10
2018-06-17T18:28:26.298Z,7.33
2018-06-17T18:30:56.764Z,6.80
2018-06-17T18:33:30.523Z,10.43
2018-06-17T18:36:04.229Z,7.40
2018-06-17T18:38:32.911Z,6.50
2018-06-17T18:41:01.554Z,6.17
2018-06-17T18:43:30.247Z,7.07
2018-06-17T18:45:58.950Z,7.27
2018-06-17T18:48:27.583Z,7.70
2018-06-17T18:50:56.267Z,12.60
2018-06-17T18:53:25.822Z,10.70
2018-06-17T18:55:54.722Z,7.17
2018-06-17T18:58:23.531Z,7.10
2018-06-17T19:00:58.818Z,6.93
2018-06-17T19:03:27.483Z,7.07
2018-06-17T19:05:56.343Z,12.43
2018-06-17T19:08:30.221Z,7.60
2018-06-17T19:11:03.965Z,6.80
2018-06-17T19:13:37.696Z,6.93
2018-06-17T19:16:14.105Z,6.37
2018-06-17T19:18:42.809Z,6.47
2018-06-17T19:21:17.906Z,8.00
2018-06-17T19:23:46.594Z,7.63
2018-06-17T19:26:15.263Z,6.83
2018-06-17T19:28:43.934Z,6.30
2018-06-17T19:31:12.624Z,7.13
2018-06-17T19:33:41.303Z,6.83
2018-06-17T19:36:10.014Z,7.70
2018-06-17T19:38:39.314Z,7.97
2018-06-17T19:41:07.978Z,7.63
2018-06-17T19:43:36.687Z,7.53
2018-06-17T19:46:05.390Z,7.97
2018-06-17T19:48:34.799Z,7.53
2018-06-17T19:51:08.591Z,7.80
2018-06-17T19:55:46.323Z,7.37
2018-06-17T19:58:20.082Z,11.60
2018-06-17T20:00:51.302Z,8.50
2018-06-17T20:03:19.905Z,7.60
2018-06-17T20:05:48.618Z,7.70
2018-06-17T20:08:17.301Z,8.57
2018-06-17T20:10:46.263Z,8.90
2018-06-17T20:13:14.874Z,7.00
2018-06-17T20:15:43.554Z,7.60
2018-06-17T20:18:12.257Z,11.17
2018-06-17T20:20:41.172Z,7.77
2018-06-17T20:23:09.909Z,8.73
2018-06-17T20:25:38.663Z,8.77
2018-06-17T20:28:07.283Z,8.70
2018-06-17T20:30:35.892Z,7.90
2018-06-17T20:33:09.638Z,8.77
2018-06-17T20:35:43.471Z,7.93
2018-06-17T20:38:17.144Z,8.70
2018-06-17T20:40:51.002Z,8.40
2018-06-17T20:43:24.894Z,9.00
2018-06-17T20:45:53.714Z,8.90
2018-06-17T20:48:23.161Z,10.80
2018-06-17T20:50:51.869Z,8.50
2018-06-17T20:53:20.627Z,9.50
2018-06-17T20:55:49.325Z,9.20
2018-06-17T20:58:17.990Z,7.77
2018-06-17T21:00:46.637Z,9.83
2018-06-17T21:03:15.456Z,10.53
2018-06-17T21:05:44.198Z,8.30
2018-06-17T21:08:12.887Z,9.30
2018-06-17T21:10:41.502Z,10.27
2018-06-17T21:13:10.206Z,11.17
2018-06-17T21:15:38.843Z,8.13
2018-06-17T21:18:07.550Z,8.63
2018-06-17T21:20:41.439Z,8.20
2018-06-17T21:23:15.594Z,8.67
2018-06-17T21:25:49.400Z,8.53
2018-06-17T21:28:18.057Z,9.33
2018-06-17T21:30:46.805Z,9.70
2018-06-17T21:33:15.538Z,11.23
2018-06-17T21:35:44.576Z,12.50
2018-06-17T21:38:13.300Z,9.50
2018-06-17T21:40:41.948Z,14.60
2018-06-17T21:43:10.575Z,13.63
2018-06-17T21:45:39.274Z,8.90
2018-06-17T21:48:07.978Z,9.20
2018-06-17T21:50:36.908Z,9.10
2018-06-17T21:53:05.566Z,9.93
2018-06-17T21:55:34.206Z,10.27
2018-06-17T21:58:02.920Z,10.10
2018-06-17T22:00:31.749Z,9.83
2018-06-17T22:03:00.778Z,9.53
2018-06-17T22:05:30.147Z,12.90
2018-06-17T22:08:03.898Z,10.60
2018-06-17T22:10:38.369Z,9.00
2018-06-17T22:13:07.851Z,8.93
2018-06-17T22:15:41.827Z,9.50
2018-06-17T22:18:10.764Z,9.53
2018-06-17T22:20:39.952Z,14.83
2018-06-17T22:23:09.913Z,9.00
2018-06-17T22:25:38.756Z,8.87
2018-06-17T22:28:07.542Z,9.60
2018-06-17T22:30:36.193Z,9.70
2018-06-17T22:33:05.712Z,10.30
2018-06-17T22:35:34.370Z,9.80
2018-06-17T22:38:03.056Z,10.77
2018-06-17T22:40:31.736Z,9.27
2018-06-17T22:43:00.828Z,8.90
2018-06-17T22:45:29.447Z,9.27
2018-06-17T22:47:58.586Z,12.20
2018-06-17T22:50:27.303Z,9.40
2018-06-17T22:53:06.942Z,12.00
2018-06-17T22:55:35.643Z,9.80
2018-06-17T22:58:09.741Z,9.67
2018-06-17T23:00:43.651Z,9.93
2018-06-17T23:03:17.623Z,8.77
2018-06-17T23:05:51.728Z,9.90
2018-06-17T23:08:25.661Z,13.80
2018-06-17T23:10:54.242Z,9.33
2018-06-17T23:13:22.954Z,15.10
2018-06-17T23:15:51.599Z,10.47
2018-06-17T23:18:20.306Z,9.57
2018-06-17T23:20:49.014Z,10.10
2018-06-17T23:23:17.945Z,11.13
2018-06-17T23:25:46.617Z,11.80
2018-06-17T23:28:15.395Z,10.43
2018-06-17T23:30:44.745Z,10.40
2018-06-17T23:33:13.439Z,9.57
2018-06-17T23:35:43.428Z,10.30
2018-06-17T23:38:12.078Z,10.17
2018-06-17T23:40:40.731Z,9.90
2018-06-17T23:43:09.392Z,9.13
2018-06-17T23:45:42.194Z,9.50
2018-06-17T23:48:15.977Z,9.47
2018-06-17T23:50:49.842Z,8.80
2018-06-17T23:53:23.567Z,10.00
2018-06-17T23:55:57.410Z,9.20
2018-06-17T23:58:26.057Z,10.50
